sensor_id;sensor_type;location;lat;lon;timestamp;temperature;humidity
15172;DHT22;7686;52.184;9.280;2023-03-14T00:00:21;27.70;33.70
15172;DHT22;7686;52.184;9.280;2023-03-14T00:02:52;27.70;33.80
15172;DHT22;7686;52.184;9.280;2023-03-14T00:05:19;27.70;33.80
15172;DHT22;7686;52.184;9.280;2023-03-14T00:07:46;27.70;33.80
15172;DHT22;7686;52.184;9.280;2023-03-14T00:10:14;27.70;33.80
15172;DHT22;7686;52.184;9.280;2023-03-14T00:12:42;27.70;33.80
15172;DHT22;7686;52.184;9.280;2023-03-14T00:15:09;27.70;33.80
15172;DHT22;7686;52.184;9.280;2023-03-14T00:17:37;27.70;33.80
15172;DHT22;7686;52.184;9.280;2023-03-14T00:20:05;27.60;33.80
15172;DHT22;7686;52.184;9.280;2023-03-14T00:22:35;27.60;33.80
15172;DHT22;7686;52.184;9.280;2023-03-14T00:25:03;27.60;33.80
15172;DHT22;7686;52.184;9.280;2023-03-14T00:27:30;27.60;33.80
15172;DHT22;7686;52.184;9.280;2023-03-14T00:29:57;27.60;33.80
15172;DHT22;7686;52.184;9.280;2023-03-14T00:32:24;27.60;33.80
15172;DHT22;7686;52.184;9.280;2023-03-14T00:34:51;27.60;33.80
15172;DHT22;7686;52.184;9.280;2023-03-14T00:37:17;27.60;33.80
15172;DHT22;7686;52.184;9.280;2023-03-14T00:39:44;27.60;33.80
15172;DHT22;7686;52.184;9.280;2023-03-14T00:42:11;27.60;33.80
15172;DHT22;7686;52.184;9.280;2023-03-14T00:44:37;27.60;33.80
15172;DHT22;7686;52.184;9.280;2023-03-14T00:47:04;27.60;33.90
15172;DHT22;7686;52.184;9.280;2023-03-14T00:49:31;27.60;33.80
15172;DHT22;7686;52.184;9.280;2023-03-14T00:51:57;27.60;33.90
15172;DHT22;7686;52.184;9.280;2023-03-14T00:54:24;27.60;33.90
15172;DHT22;7686;52.184;9.280;2023-03-14T00:56:51;27.60;33.90
15172;DHT22;7686;52.184;9.280;2023-03-14T00:59:17;27.60;33.90
15172;DHT22;7686;52.184;9.280;2023-03-14T01:01:44;27.50;34.20
15172;DHT22;7686;52.184;9.280;2023-03-14T01:04:10;27.50;33.80
15172;DHT22;7686;52.184;9.280;2023-03-14T01:06:37;27.50;33.80
15172;DHT22;7686;52.184;9.280;2023-03-14T01:09:05;27.50;33.80
15172;DHT22;7686;52.184;9.280;2023-03-14T01:11:33;27.50;33.90
15172;DHT22;7686;52.184;9.280;2023-03-14T01:14:01;27.50;33.90
15172;DHT22;7686;52.184;9.280;2023-03-14T01:16:30;27.50;33.90
15172;DHT22;7686;52.184;9.280;2023-03-14T01:18:57;27.50;33.90
15172;DHT22;7686;52.184;9.280;2023-03-14T01:21:26;27.50;33.90
15172;DHT22;7686;52.184;9.280;2023-03-14T01:23:54;27.50;33.90
15172;DHT22;7686;52.184;9.280;2023-03-14T01:26:25;27.50;33.90
15172;DHT22;7686;52.184;9.280;2023-03-14T01:28:53;27.50;33.90
15172;DHT22;7686;52.184;9.280;2023-03-14T01:31:21;27.50;33.90
15172;DHT22;7686;52.184;9.280;2023-03-14T01:33:48;27.50;33.90
15172;DHT22;7686;52.184;9.280;2023-03-14T01:36:15;27.50;33.90
15172;DHT22;7686;52.184;9.280;2023-03-14T01:38:42;27.40;33.90
15172;DHT22;7686;52.184;9.280;2023-03-14T01:41:16;27.40;33.90
15172;DHT22;7686;52.184;9.280;2023-03-14T01:43:44;27.40;33.90
15172;DHT22;7686;52.184;9.280;2023-03-14T01:46:34;27.40;33.90
15172;DHT22;7686;52.184;9.280;2023-03-14T01:49:18;27.40;33.90
15172;DHT22;7686;52.184;9.280;2023-03-14T01:51:54;27.40;34.00
15172;DHT22;7686;52.184;9.280;2023-03-14T01:54:35;27.40;34.00
15172;DHT22;7686;52.184;9.280;2023-03-14T01:57:11;27.40;33.90
15172;DHT22;7686;52.184;9.280;2023-03-14T01:59:40;27.40;33.90
15172;DHT22;7686;52.184;9.280;2023-03-14T02:02:10;27.40;34.10
15172;DHT22;7686;52.184;9.280;2023-03-14T02:04:38;27.40;34.00
15172;DHT22;7686;52.184;9.280;2023-03-14T02:09:38;27.40;34.00
15172;DHT22;7686;52.184;9.280;2023-03-14T02:12:05;27.40;34.00
15172;DHT22;7686;52.184;9.280;2023-03-14T02:14:35;27.40;34.00
15172;DHT22;7686;52.184;9.280;2023-03-14T02:17:03;27.40;34.00
15172;DHT22;7686;52.184;9.280;2023-03-14T02:22:35;27.30;34.00
15172;DHT22;7686;52.184;9.280;2023-03-14T02:27:57;27.30;34.00
15172;DHT22;7686;52.184;9.280;2023-03-14T02:30:27;27.30;34.00
15172;DHT22;7686;52.184;9.280;2023-03-14T02:32:58;27.30;34.00
15172;DHT22;7686;52.184;9.280;2023-03-14T02:35:27;27.30;34.10
15172;DHT22;7686;52.184;9.280;2023-03-14T02:38:08;27.30;34.00
15172;DHT22;7686;52.184;9.280;2023-03-14T02:40:39;27.30;34.00
15172;DHT22;7686;52.184;9.280;2023-03-14T02:43:06;27.30;34.00
15172;DHT22;7686;52.184;9.280;2023-03-14T02:45:36;27.30;34.70
15172;DHT22;7686;52.184;9.280;2023-03-14T02:48:07;27.30;34.00
15172;DHT22;7686;52.184;9.280;2023-03-14T02:50:35;27.30;34.00
15172;DHT22;7686;52.184;9.280;2023-03-14T02:53:02;27.30;34.00
15172;DHT22;7686;52.184;9.280;2023-03-14T02:55:29;27.30;34.10
15172;DHT22;7686;52.184;9.280;2023-03-14T02:57:55;27.30;34.00
15172;DHT22;7686;52.184;9.280;2023-03-14T03:00:22;27.30;34.00
15172;DHT22;7686;52.184;9.280;2023-03-14T03:02:49;27.30;34.00
15172;DHT22;7686;52.184;9.280;2023-03-14T03:05:15;27.30;34.00
15172;DHT22;7686;52.184;9.280;2023-03-14T03:07:42;27.30;34.00
15172;DHT22;7686;52.184;9.280;2023-03-14T03:10:09;27.30;34.00
15172;DHT22;7686;52.184;9.280;2023-03-14T03:12:36;27.30;34.00
15172;DHT22;7686;52.184;9.280;2023-03-14T03:15:03;27.30;34.00
15172;DHT22;7686;52.184;9.280;2023-03-14T03:17:30;27.20;34.00
15172;DHT22;7686;52.184;9.280;2023-03-14T03:19:56;27.30;34.00
15172;DHT22;7686;52.184;9.280;2023-03-14T03:22:23;27.30;34.00
15172;DHT22;7686;52.184;9.280;2023-03-14T03:24:49;27.30;34.00
15172;DHT22;7686;52.184;9.280;2023-03-14T03:27:16;27.30;34.00
15172;DHT22;7686;52.184;9.280;2023-03-14T03:29:43;27.30;34.00
15172;DHT22;7686;52.184;9.280;2023-03-14T03:32:09;27.30;34.00
15172;DHT22;7686;52.184;9.280;2023-03-14T03:34:36;27.30;34.70
15172;DHT22;7686;52.184;9.280;2023-03-14T03:37:02;27.20;33.90
15172;DHT22;7686;52.184;9.280;2023-03-14T03:39:29;27.20;33.90
15172;DHT22;7686;52.184;9.280;2023-03-14T03:41:55;27.20;34.00
15172;DHT22;7686;52.184;9.280;2023-03-14T03:44:22;27.20;34.00
15172;DHT22;7686;52.184;9.280;2023-03-14T03:46:49;27.20;34.00
15172;DHT22;7686;52.184;9.280;2023-03-14T03:49:15;27.20;34.00
15172;DHT22;7686;52.184;9.280;2023-03-14T03:51:42;27.20;34.00
15172;DHT22;7686;52.184;9.280;2023-03-14T03:54:08;27.20;34.00
15172;DHT22;7686;52.184;9.280;2023-03-14T03:56:35;27.20;34.00
15172;DHT22;7686;52.184;9.280;2023-03-14T03:59:01;27.20;34.00
15172;DHT22;7686;52.184;9.280;2023-03-14T04:01:28;27.20;34.00
15172;DHT22;7686;52.184;9.280;2023-03-14T04:03:55;27.20;34.00
15172;DHT22;7686;52.184;9.280;2023-03-14T04:06:23;27.20;34.00
15172;DHT22;7686;52.184;9.280;2023-03-14T04:08:49;27.10;33.90
15172;DHT22;7686;52.184;9.280;2023-03-14T04:11:16;27.10;33.90
15172;DHT22;7686;52.184;9.280;2023-03-14T04:13:43;27.10;33.90
15172;DHT22;7686;52.184;9.280;2023-03-14T04:16:16;27.10;33.90
15172;DHT22;7686;52.184;9.280;2023-03-14T04:18:43;27.10;33.90
15172;DHT22;7686;52.184;9.280;2023-03-14T04:21:10;27.10;34.00
15172;DHT22;7686;52.184;9.280;2023-03-14T04:23:36;27.10;33.90
15172;DHT22;7686;52.184;9.280;2023-03-14T04:26:03;27.10;34.00
15172;DHT22;7686;52.184;9.280;2023-03-14T04:28:30;27.10;34.00
15172;DHT22;7686;52.184;9.280;2023-03-14T04:30:56;27.10;34.00
15172;DHT22;7686;52.184;9.280;2023-03-14T04:33:23;27.10;34.00
15172;DHT22;7686;52.184;9.280;2023-03-14T04:35:53;27.10;34.00
15172;DHT22;7686;52.184;9.280;2023-03-14T04:38:20;27.10;34.00
15172;DHT22;7686;52.184;9.280;2023-03-14T04:40:47;27.10;34.00
15172;DHT22;7686;52.184;9.280;2023-03-14T04:43:13;27.10;34.10
15172;DHT22;7686;52.184;9.280;2023-03-14T04:45:43;27.00;34.00
15172;DHT22;7686;52.184;9.280;2023-03-14T04:48:10;27.00;34.00
15172;DHT22;7686;52.184;9.280;2023-03-14T04:50:37;27.10;34.30
15172;DHT22;7686;52.184;9.280;2023-03-14T04:53:04;27.10;34.20
15172;DHT22;7686;52.184;9.280;2023-03-14T04:55:31;27.10;34.20
15172;DHT22;7686;52.184;9.280;2023-03-14T04:57:59;27.10;34.20
15172;DHT22;7686;52.184;9.280;2023-03-14T05:00:26;27.10;34.20
15172;DHT22;7686;52.184;9.280;2023-03-14T05:02:52;27.10;34.20
15172;DHT22;7686;52.184;9.280;2023-03-14T05:05:19;27.10;34.20
15172;DHT22;7686;52.184;9.280;2023-03-14T05:07:47;27.10;34.20
15172;DHT22;7686;52.184;9.280;2023-03-14T05:10:14;27.20;34.20
15172;DHT22;7686;52.184;9.280;2023-03-14T05:12:40;27.20;34.20
15172;DHT22;7686;52.184;9.280;2023-03-14T05:15:08;27.30;34.10
15172;DHT22;7686;52.184;9.280;2023-03-14T05:17:34;27.30;34.10
15172;DHT22;7686;52.184;9.280;2023-03-14T05:20:02;27.40;34.10
15172;DHT22;7686;52.184;9.280;2023-03-14T05:22:34;27.40;34.10
15172;DHT22;7686;52.184;9.280;2023-03-14T05:25:00;27.50;34.20
15172;DHT22;7686;52.184;9.280;2023-03-14T05:27:27;27.50;34.10
15172;DHT22;7686;52.184;9.280;2023-03-14T05:29:53;27.50;34.00
15172;DHT22;7686;52.184;9.280;2023-03-14T05:32:20;27.60;34.10
15172;DHT22;7686;52.184;9.280;2023-03-14T05:34:47;27.60;34.00
15172;DHT22;7686;52.184;9.280;2023-03-14T05:37:13;27.60;33.90
15172;DHT22;7686;52.184;9.280;2023-03-14T05:39:40;27.70;33.90
15172;DHT22;7686;52.184;9.280;2023-03-14T05:42:06;27.70;33.90
15172;DHT22;7686;52.184;9.280;2023-03-14T05:44:33;27.70;34.40
15172;DHT22;7686;52.184;9.280;2023-03-14T05:47:00;27.80;33.80
15172;DHT22;7686;52.184;9.280;2023-03-14T05:49:26;27.80;33.80
15172;DHT22;7686;52.184;9.280;2023-03-14T05:51:53;27.80;33.80
15172;DHT22;7686;52.184;9.280;2023-03-14T05:54:19;27.90;33.80
15172;DHT22;7686;52.184;9.280;2023-03-14T05:56:46;27.90;33.80
15172;DHT22;7686;52.184;9.280;2023-03-14T05:59:12;27.90;33.80
15172;DHT22;7686;52.184;9.280;2023-03-14T06:01:40;27.90;33.80
15172;DHT22;7686;52.184;9.280;2023-03-14T06:04:07;27.90;33.70
15172;DHT22;7686;52.184;9.280;2023-03-14T06:06:34;28.00;33.80
15172;DHT22;7686;52.184;9.280;2023-03-14T06:09:00;28.00;33.80
15172;DHT22;7686;52.184;9.280;2023-03-14T06:11:27;28.00;33.70
15172;DHT22;7686;52.184;9.280;2023-03-14T06:13:54;28.10;33.80
15172;DHT22;7686;52.184;9.280;2023-03-14T06:16:20;28.00;33.70
15172;DHT22;7686;52.184;9.280;2023-03-14T06:18:47;28.10;33.70
15172;DHT22;7686;52.184;9.280;2023-03-14T06:21:15;28.10;33.80
15172;DHT22;7686;52.184;9.280;2023-03-14T06:23:44;28.10;33.70
15172;DHT22;7686;52.184;9.280;2023-03-14T06:26:11;28.10;33.70
15172;DHT22;7686;52.184;9.280;2023-03-14T06:28:38;28.20;33.70
15172;DHT22;7686;52.184;9.280;2023-03-14T06:31:05;28.20;33.70
15172;DHT22;7686;52.184;9.280;2023-03-14T06:33:32;28.20;33.70
15172;DHT22;7686;52.184;9.280;2023-03-14T06:35:59;28.20;33.70
15172;DHT22;7686;52.184;9.280;2023-03-14T06:38:25;28.20;34.40
15172;DHT22;7686;52.184;9.280;2023-03-14T06:40:52;28.20;33.60
15172;DHT22;7686;52.184;9.280;2023-03-14T06:43:18;28.20;33.60
15172;DHT22;7686;52.184;9.280;2023-03-14T06:45:45;28.20;33.60
15172;DHT22;7686;52.184;9.280;2023-03-14T06:48:12;28.30;33.70
15172;DHT22;7686;52.184;9.280;2023-03-14T06:50:38;28.30;33.60
15172;DHT22;7686;52.184;9.280;2023-03-14T06:53:05;28.30;33.60
15172;DHT22;7686;52.184;9.280;2023-03-14T06:55:31;28.30;33.60
15172;DHT22;7686;52.184;9.280;2023-03-14T06:57:58;28.40;33.70
15172;DHT22;7686;52.184;9.280;2023-03-14T07:00:25;28.30;33.70
15172;DHT22;7686;52.184;9.280;2023-03-14T07:02:51;28.30;33.70
15172;DHT22;7686;52.184;9.280;2023-03-14T07:05:18;28.30;33.60
15172;DHT22;7686;52.184;9.280;2023-03-14T07:07:44;28.30;33.70
15172;DHT22;7686;52.184;9.280;2023-03-14T07:10:11;28.40;33.70
15172;DHT22;7686;52.184;9.280;2023-03-14T07:12:38;28.40;33.60
15172;DHT22;7686;52.184;9.280;2023-03-14T07:15:05;28.50;33.60
15172;DHT22;7686;52.184;9.280;2023-03-14T07:17:51;28.40;33.50
15172;DHT22;7686;52.184;9.280;2023-03-14T07:20:18;28.50;33.50
15172;DHT22;7686;52.184;9.280;2023-03-14T07:22:47;28.50;33.50
15172;DHT22;7686;52.184;9.280;2023-03-14T07:25:16;28.50;33.40
15172;DHT22;7686;52.184;9.280;2023-03-14T07:27:44;28.40;33.30
15172;DHT22;7686;52.184;9.280;2023-03-14T07:30:11;28.50;33.40
15172;DHT22;7686;52.184;9.280;2023-03-14T07:32:38;28.50;33.30
15172;DHT22;7686;52.184;9.280;2023-03-14T07:35:06;28.50;33.30
15172;DHT22;7686;52.184;9.280;2023-03-14T07:37:32;28.50;33.30
15172;DHT22;7686;52.184;9.280;2023-03-14T07:39:59;28.50;33.20
15172;DHT22;7686;52.184;9.280;2023-03-14T07:42:25;28.50;33.30
15172;DHT22;7686;52.184;9.280;2023-03-14T07:44:52;28.50;33.30
15172;DHT22;7686;52.184;9.280;2023-03-14T07:47:19;28.50;33.30
15172;DHT22;7686;52.184;9.280;2023-03-14T07:49:46;28.50;33.20
15172;DHT22;7686;52.184;9.280;2023-03-14T07:52:12;28.50;33.20
15172;DHT22;7686;52.184;9.280;2023-03-14T07:54:39;28.50;33.20
15172;DHT22;7686;52.184;9.280;2023-03-14T07:57:06;28.50;33.20
15172;DHT22;7686;52.184;9.280;2023-03-14T07:59:32;28.50;33.10
15172;DHT22;7686;52.184;9.280;2023-03-14T08:01:59;28.50;33.10
15172;DHT22;7686;52.184;9.280;2023-03-14T08:04:25;28.50;33.10
15172;DHT22;7686;52.184;9.280;2023-03-14T08:06:53;28.50;33.20
15172;DHT22;7686;52.184;9.280;2023-03-14T08:09:20;28.60;33.90
15172;DHT22;7686;52.184;9.280;2023-03-14T08:11:47;28.50;33.20
15172;DHT22;7686;52.184;9.280;2023-03-14T08:14:13;28.50;33.20
15172;DHT22;7686;52.184;9.280;2023-03-14T08:16:40;28.50;33.20
15172;DHT22;7686;52.184;9.280;2023-03-14T08:19:07;28.50;33.20
15172;DHT22;7686;52.184;9.280;2023-03-14T08:21:33;28.50;33.20
15172;DHT22;7686;52.184;9.280;2023-03-14T08:24:00;28.50;33.30
15172;DHT22;7686;52.184;9.280;2023-03-14T08:26:27;28.50;33.30
15172;DHT22;7686;52.184;9.280;2023-03-14T08:28:53;28.50;33.30
15172;DHT22;7686;52.184;9.280;2023-03-14T08:31:20;28.50;33.40
15172;DHT22;7686;52.184;9.280;2023-03-14T08:33:47;28.60;33.30
15172;DHT22;7686;52.184;9.280;2023-03-14T08:36:14;28.50;33.30
15172;DHT22;7686;52.184;9.280;2023-03-14T08:38:40;28.60;33.30
15172;DHT22;7686;52.184;9.280;2023-03-14T08:41:09;28.60;33.40
15172;DHT22;7686;52.184;9.280;2023-03-14T08:43:36;28.60;33.30
15172;DHT22;7686;52.184;9.280;2023-03-14T08:46:03;28.60;33.30
15172;DHT22;7686;52.184;9.280;2023-03-14T08:48:30;28.60;33.30
15172;DHT22;7686;52.184;9.280;2023-03-14T08:51:10;28.60;33.40
15172;DHT22;7686;52.184;9.280;2023-03-14T08:53:39;28.60;33.30
15172;DHT22;7686;52.184;9.280;2023-03-14T08:56:06;28.70;33.50
15172;DHT22;7686;52.184;9.280;2023-03-14T08:58:36;28.60;33.30
15172;DHT22;7686;52.184;9.280;2023-03-14T09:01:08;28.60;33.30
15172;DHT22;7686;52.184;9.280;2023-03-14T09:03:36;28.70;33.40
15172;DHT22;7686;52.184;9.280;2023-03-14T09:06:07;28.60;33.40
15172;DHT22;7686;52.184;9.280;2023-03-14T09:08:35;28.60;33.40
15172;DHT22;7686;52.184;9.280;2023-03-14T09:11:07;28.60;33.30
15172;DHT22;7686;52.184;9.280;2023-03-14T09:13:34;28.60;33.30
15172;DHT22;7686;52.184;9.280;2023-03-14T09:16:02;28.70;33.40
15172;DHT22;7686;52.184;9.280;2023-03-14T09:18:29;28.70;33.40
15172;DHT22;7686;52.184;9.280;2023-03-14T09:20:55;28.70;33.30
15172;DHT22;7686;52.184;9.280;2023-03-14T09:23:22;28.70;33.30
15172;DHT22;7686;52.184;9.280;2023-03-14T09:25:49;28.70;33.30
15172;DHT22;7686;52.184;9.280;2023-03-14T09:28:15;28.70;33.30
15172;DHT22;7686;52.184;9.280;2023-03-14T09:30:42;28.70;33.30
15172;DHT22;7686;52.184;9.280;2023-03-14T09:33:09;28.70;33.30
15172;DHT22;7686;52.184;9.280;2023-03-14T09:35:35;28.80;33.30
15172;DHT22;7686;52.184;9.280;2023-03-14T09:38:02;28.70;33.30
15172;DHT22;7686;52.184;9.280;2023-03-14T09:40:33;28.70;33.30
15172;DHT22;7686;52.184;9.280;2023-03-14T09:43:01;28.70;33.30
15172;DHT22;7686;52.184;9.280;2023-03-14T09:45:33;28.70;33.20
15172;DHT22;7686;52.184;9.280;2023-03-14T09:48:03;28.70;33.20
15172;DHT22;7686;52.184;9.280;2023-03-14T09:50:43;28.70;33.20
15172;DHT22;7686;52.184;9.280;2023-03-14T09:53:14;28.80;33.20
15172;DHT22;7686;52.184;9.280;2023-03-14T09:55:42;28.80;33.20
15172;DHT22;7686;52.184;9.280;2023-03-14T09:58:16;28.80;33.20
15172;DHT22;7686;52.184;9.280;2023-03-14T10:00:43;28.80;33.10
15172;DHT22;7686;52.184;9.280;2023-03-14T10:05:41;28.80;33.20
15172;DHT22;7686;52.184;9.280;2023-03-14T10:08:12;28.80;33.00
15172;DHT22;7686;52.184;9.280;2023-03-14T10:10:40;28.80;33.00
15172;DHT22;7686;52.184;9.280;2023-03-14T10:13:22;28.90;33.10
15172;DHT22;7686;52.184;9.280;2023-03-14T10:15:58;28.90;33.20
15172;DHT22;7686;52.184;9.280;2023-03-14T10:18:29;28.90;33.10
15172;DHT22;7686;52.184;9.280;2023-03-14T10:21:16;28.90;33.20
15172;DHT22;7686;52.184;9.280;2023-03-14T10:23:46;28.90;33.20
15172;DHT22;7686;52.184;9.280;2023-03-14T10:26:17;28.90;33.20
15172;DHT22;7686;52.184;9.280;2023-03-14T10:28:51;28.90;33.20
15172;DHT22;7686;52.184;9.280;2023-03-14T10:31:18;28.90;33.30
15172;DHT22;7686;52.184;9.280;2023-03-14T10:33:59;28.90;33.40
15172;DHT22;7686;52.184;9.280;2023-03-14T10:36:29;28.90;33.40
15172;DHT22;7686;52.184;9.280;2023-03-14T10:42:14;28.90;33.40
15172;DHT22;7686;52.184;9.280;2023-03-14T10:44:42;28.90;33.40
15172;DHT22;7686;52.184;9.280;2023-03-14T10:47:19;28.90;33.40
15172;DHT22;7686;52.184;9.280;2023-03-14T10:49:46;28.90;33.40
15172;DHT22;7686;52.184;9.280;2023-03-14T10:52:18;28.90;33.40
15172;DHT22;7686;52.184;9.280;2023-03-14T10:55:08;28.90;33.40
15172;DHT22;7686;52.184;9.280;2023-03-14T10:57:42;28.90;33.30
15172;DHT22;7686;52.184;9.280;2023-03-14T11:00:21;29.00;33.50
15172;DHT22;7686;52.184;9.280;2023-03-14T11:03:04;28.90;33.40
15172;DHT22;7686;52.184;9.280;2023-03-14T11:08:31;29.00;33.40
15172;DHT22;7686;52.184;9.280;2023-03-14T11:11:26;29.00;33.40
15172;DHT22;7686;52.184;9.280;2023-03-14T11:14:20;29.00;33.30
15172;DHT22;7686;52.184;9.280;2023-03-14T11:22:08;29.00;33.30
15172;DHT22;7686;52.184;9.280;2023-03-14T11:27:52;29.00;33.30
15172;DHT22;7686;52.184;9.280;2023-03-14T11:30:38;29.00;33.70
15172;DHT22;7686;52.184;9.280;2023-03-14T11:33:15;29.00;33.30
15172;DHT22;7686;52.184;9.280;2023-03-14T11:36:04;29.00;33.20
15172;DHT22;7686;52.184;9.280;2023-03-14T11:41:00;29.00;33.30
15172;DHT22;7686;52.184;9.280;2023-03-14T11:43:34;29.00;33.30
15172;DHT22;7686;52.184;9.280;2023-03-14T11:46:05;29.00;33.20
15172;DHT22;7686;52.184;9.280;2023-03-14T11:51:14;29.00;33.20
15172;DHT22;7686;52.184;9.280;2023-03-14T11:54:01;29.10;33.30
15172;DHT22;7686;52.184;9.280;2023-03-14T11:59:23;29.10;33.30
15172;DHT22;7686;52.184;9.280;2023-03-14T12:07:25;29.10;33.40
15172;DHT22;7686;52.184;9.280;2023-03-14T12:09:54;29.10;33.50
15172;DHT22;7686;52.184;9.280;2023-03-14T12:12:23;29.10;33.50
15172;DHT22;7686;52.184;9.280;2023-03-14T12:14:59;29.10;33.60
15172;DHT22;7686;52.184;9.280;2023-03-14T12:17:41;29.10;33.70
15172;DHT22;7686;52.184;9.280;2023-03-14T12:20:21;29.10;33.80
15172;DHT22;7686;52.184;9.280;2023-03-14T12:23:03;29.10;33.90
15172;DHT22;7686;52.184;9.280;2023-03-14T12:25:32;29.10;34.10
15172;DHT22;7686;52.184;9.280;2023-03-14T12:30:38;29.10;34.10
15172;DHT22;7686;52.184;9.280;2023-03-14T12:35:52;29.10;34.20
15172;DHT22;7686;52.184;9.280;2023-03-14T12:38:37;29.10;34.20
15172;DHT22;7686;52.184;9.280;2023-03-14T12:41:21;29.10;34.20
15172;DHT22;7686;52.184;9.280;2023-03-14T12:43:49;29.10;34.30
15172;DHT22;7686;52.184;9.280;2023-03-14T12:46:24;29.10;34.20
15172;DHT22;7686;52.184;9.280;2023-03-14T12:51:38;29.10;34.30
15172;DHT22;7686;52.184;9.280;2023-03-14T12:54:21;29.10;34.30
15172;DHT22;7686;52.184;9.280;2023-03-14T12:59:32;29.10;34.30
15172;DHT22;7686;52.184;9.280;2023-03-14T13:02:21;29.10;34.40
15172;DHT22;7686;52.184;9.280;2023-03-14T13:07:34;29.20;34.50
15172;DHT22;7686;52.184;9.280;2023-03-14T13:12:57;29.20;34.40
15172;DHT22;7686;52.184;9.280;2023-03-14T13:15:39;29.20;34.50
15172;DHT22;7686;52.184;9.280;2023-03-14T13:20:56;29.30;34.50
15172;DHT22;7686;52.184;9.280;2023-03-14T13:23:27;29.30;34.40
15172;DHT22;7686;52.184;9.280;2023-03-14T13:25:54;29.30;34.40
15172;DHT22;7686;52.184;9.280;2023-03-14T13:28:21;29.30;34.40
15172;DHT22;7686;52.184;9.280;2023-03-14T13:30:54;29.30;34.30
15172;DHT22;7686;52.184;9.280;2023-03-14T13:33:23;29.40;34.40
15172;DHT22;7686;52.184;9.280;2023-03-14T13:35:57;29.40;34.20
15172;DHT22;7686;52.184;9.280;2023-03-14T13:38:29;29.40;34.20
15172;DHT22;7686;52.184;9.280;2023-03-14T13:40:58;29.40;34.10
15172;DHT22;7686;52.184;9.280;2023-03-14T13:43:31;29.40;34.10
15172;DHT22;7686;52.184;9.280;2023-03-14T13:46:14;29.40;34.00
15172;DHT22;7686;52.184;9.280;2023-03-14T13:48:49;29.40;34.00
15172;DHT22;7686;52.184;9.280;2023-03-14T13:51:18;29.40;33.90
15172;DHT22;7686;52.184;9.280;2023-03-14T13:53:50;29.40;34.00
15172;DHT22;7686;52.184;9.280;2023-03-14T13:56:19;29.40;34.00
15172;DHT22;7686;52.184;9.280;2023-03-14T13:58:46;29.40;33.90
15172;DHT22;7686;52.184;9.280;2023-03-14T14:01:23;29.40;33.90
15172;DHT22;7686;52.184;9.280;2023-03-14T14:03:52;29.30;34.00
15172;DHT22;7686;52.184;9.280;2023-03-14T14:09:02;29.30;33.90
15172;DHT22;7686;52.184;9.280;2023-03-14T14:11:57;29.30;33.90
15172;DHT22;7686;52.184;9.280;2023-03-14T14:17:18;29.40;33.90
15172;DHT22;7686;52.184;9.280;2023-03-14T14:19:46;29.20;33.70
15172;DHT22;7686;52.184;9.280;2023-03-14T14:22:13;29.30;33.80
15172;DHT22;7686;52.184;9.280;2023-03-14T14:24:40;29.20;33.80
15172;DHT22;7686;52.184;9.280;2023-03-14T14:29:57;29.10;33.70
15172;DHT22;7686;52.184;9.280;2023-03-14T14:32:24;29.20;33.80
15172;DHT22;7686;52.184;9.280;2023-03-14T14:34:58;29.10;33.70
15172;DHT22;7686;52.184;9.280;2023-03-14T14:37:33;29.20;33.70
15172;DHT22;7686;52.184;9.280;2023-03-14T14:40:07;29.10;33.70
15172;DHT22;7686;52.184;9.280;2023-03-14T14:42:39;29.10;33.60
15172;DHT22;7686;52.184;9.280;2023-03-14T14:45:10;29.00;33.60
15172;DHT22;7686;52.184;9.280;2023-03-14T14:47:51;29.00;33.60
15172;DHT22;7686;52.184;9.280;2023-03-14T14:55:50;29.00;33.60
15172;DHT22;7686;52.184;9.280;2023-03-14T14:58:27;28.90;33.90
15172;DHT22;7686;52.184;9.280;2023-03-14T15:01:03;28.90;33.60
15172;DHT22;7686;52.184;9.280;2023-03-14T15:03:32;28.90;33.60
15172;DHT22;7686;52.184;9.280;2023-03-14T15:05:59;28.90;33.60
15172;DHT22;7686;52.184;9.280;2023-03-14T15:08:27;28.90;33.60
15172;DHT22;7686;52.184;9.280;2023-03-14T15:10:55;28.80;33.60
15172;DHT22;7686;52.184;9.280;2023-03-14T15:13:23;28.80;33.60
15172;DHT22;7686;52.184;9.280;2023-03-14T15:15:50;28.80;33.70
15172;DHT22;7686;52.184;9.280;2023-03-14T15:18:24;28.80;33.70
15172;DHT22;7686;52.184;9.280;2023-03-14T15:20:51;28.80;34.40
15172;DHT22;7686;52.184;9.280;2023-03-14T15:23:20;28.80;33.60
15172;DHT22;7686;52.184;9.280;2023-03-14T15:25:47;28.80;33.60
15172;DHT22;7686;52.184;9.280;2023-03-14T15:28:29;28.70;33.60
15172;DHT22;7686;52.184;9.280;2023-03-14T15:30:58;28.80;33.60
15172;DHT22;7686;52.184;9.280;2023-03-14T15:33:26;28.80;33.70
15172;DHT22;7686;52.184;9.280;2023-03-14T15:35:53;28.70;33.60
15172;DHT22;7686;52.184;9.280;2023-03-14T15:38:21;28.70;33.70
15172;DHT22;7686;52.184;9.280;2023-03-14T15:40:50;28.70;33.60
15172;DHT22;7686;52.184;9.280;2023-03-14T15:43:17;28.70;33.60
15172;DHT22;7686;52.184;9.280;2023-03-14T15:45:45;28.70;33.60
15172;DHT22;7686;52.184;9.280;2023-03-14T15:48:17;28.70;33.60
15172;DHT22;7686;52.184;9.280;2023-03-14T15:50:45;28.70;33.60
15172;DHT22;7686;52.184;9.280;2023-03-14T15:53:12;28.70;33.60
15172;DHT22;7686;52.184;9.280;2023-03-14T15:55:39;28.70;33.60
15172;DHT22;7686;52.184;9.280;2023-03-14T15:58:07;28.60;33.50
15172;DHT22;7686;52.184;9.280;2023-03-14T16:00:36;28.60;33.50
15172;DHT22;7686;52.184;9.280;2023-03-14T16:03:04;28.60;33.50
15172;DHT22;7686;52.184;9.280;2023-03-14T16:05:30;28.60;33.50
15172;DHT22;7686;52.184;9.280;2023-03-14T16:07:57;28.60;33.50
15172;DHT22;7686;52.184;9.280;2023-03-14T16:10:23;28.60;33.50
15172;DHT22;7686;52.184;9.280;2023-03-14T16:12:50;28.60;33.50
15172;DHT22;7686;52.184;9.280;2023-03-14T16:15:17;28.60;33.50
15172;DHT22;7686;52.184;9.280;2023-03-14T16:17:43;28.60;33.50
15172;DHT22;7686;52.184;9.280;2023-03-14T16:20:10;28.50;33.50
15172;DHT22;7686;52.184;9.280;2023-03-14T16:22:38;28.50;33.40
15172;DHT22;7686;52.184;9.280;2023-03-14T16:25:06;28.50;33.50
15172;DHT22;7686;52.184;9.280;2023-03-14T16:27:34;28.50;33.40
15172;DHT22;7686;52.184;9.280;2023-03-14T16:30:00;28.50;33.50
15172;DHT22;7686;52.184;9.280;2023-03-14T16:32:27;28.50;33.50
15172;DHT22;7686;52.184;9.280;2023-03-14T16:34:54;28.40;33.40
15172;DHT22;7686;52.184;9.280;2023-03-14T16:37:23;28.50;33.40
15172;DHT22;7686;52.184;9.280;2023-03-14T16:39:50;28.40;33.30
15172;DHT22;7686;52.184;9.280;2023-03-14T16:42:36;28.40;33.40
15172;DHT22;7686;52.184;9.280;2023-03-14T16:45:20;28.50;33.40
15172;DHT22;7686;52.184;9.280;2023-03-14T16:47:47;28.50;33.40
15172;DHT22;7686;52.184;9.280;2023-03-14T16:50:14;28.40;33.40
15172;DHT22;7686;52.184;9.280;2023-03-14T16:52:40;28.40;33.40
15172;DHT22;7686;52.184;9.280;2023-03-14T16:55:07;28.40;33.40
15172;DHT22;7686;52.184;9.280;2023-03-14T16:57:34;28.40;33.40
15172;DHT22;7686;52.184;9.280;2023-03-14T17:00:00;28.40;33.50
15172;DHT22;7686;52.184;9.280;2023-03-14T17:02:27;28.40;33.50
15172;DHT22;7686;52.184;9.280;2023-03-14T17:04:53;28.50;33.50
15172;DHT22;7686;52.184;9.280;2023-03-14T17:07:20;28.40;33.50
15172;DHT22;7686;52.184;9.280;2023-03-14T17:09:47;28.40;33.50